createdAt,value
2019-02-15T00:00:16.610Z,13.15
2019-02-15T00:02:50.778Z,12.78
2019-02-15T00:05:20.841Z,13.75
2019-02-15T00:07:49.103Z,13.48
2019-02-15T00:10:17.498Z,13.03
2019-02-15T00:12:45.839Z,13.40
2019-02-15T00:15:14.159Z,14.50
2019-02-15T00:21:20.217Z,13.90
2019-02-15T00:23:48.479Z,13.28
2019-02-15T00:26:16.889Z,12.93
2019-02-15T00:28:45.208Z,12.33
2019-02-15T00:31:15.118Z,13.70
2019-02-15T00:33:43.489Z,13.48
2019-02-15T00:36:11.763Z,14.47
2019-02-15T00:38:41.651Z,13.93
2019-02-15T00:41:09.911Z,11.78
2019-02-15T00:43:38.171Z,13.55
2019-02-15T00:46:14.009Z,13.22
2019-02-15T00:48:42.301Z,11.78
2019-02-15T00:51:12.203Z,15.93
2019-02-15T00:59:21.919Z,13.95
2019-02-15T01:01:54.559Z,14.18
2019-02-15T01:04:33.217Z,13.80
2019-02-15T01:07:03.140Z,13.48
2019-02-15T01:09:35.853Z,13.05
2019-02-15T01:12:05.810Z,14.58
2019-02-15T01:14:34.061Z,14.07
2019-02-15T01:17:02.402Z,14.38
2019-02-15T01:19:31.021Z,14.63
2019-02-15T01:21:59.296Z,14.87
2019-02-15T01:24:27.575Z,15.20
2019-02-15T01:26:57.471Z,15.43
2019-02-15T01:29:29.845Z,11.93
2019-02-15T01:32:02.184Z,13.20
2019-02-15T01:34:46.987Z,14.55
2019-02-15T01:37:31.841Z,12.60
2019-02-15T01:42:34.215Z,11.50
2019-02-15T01:47:49.015Z,13.13
2019-02-15T01:50:17.312Z,15.08
2019-02-15T01:52:45.569Z,13.40
2019-02-15T01:55:13.840Z,14.60
2019-02-15T01:57:42.133Z,13.38
2019-02-15T02:00:13.106Z,13.88
2019-02-15T02:02:41.393Z,12.73
2019-02-15T02:05:09.642Z,14.58
2019-02-15T02:08:33.780Z,13.28
2019-02-15T02:11:02.054Z,12.60
2019-02-15T02:13:30.322Z,13.65
2019-02-15T02:15:58.598Z,15.25
2019-02-15T02:18:26.884Z,14.78
2019-02-15T02:20:55.172Z,12.68
2019-02-15T02:23:23.440Z,14.38
2019-02-15T02:25:51.725Z,9.58
2019-02-15T02:28:19.988Z,14.28
2019-02-15T02:30:48.230Z,13.03
2019-02-15T02:33:16.562Z,12.60
2019-02-15T02:35:45.222Z,12.95
2019-02-15T02:38:15.160Z,12.68
2019-02-15T02:40:43.436Z,9.95
2019-02-15T02:43:11.693Z,13.08
2019-02-15T02:45:39.948Z,15.03
2019-02-15T02:48:08.226Z,11.65
2019-02-15T02:50:36.480Z,14.10
2019-02-15T02:53:04.745Z,14.05
2019-02-15T02:55:33.011Z,13.13
2019-02-15T02:58:01.269Z,11.97
2019-02-15T03:00:33.565Z,11.88
2019-02-15T03:02:59.530Z,11.08
2019-02-15T03:05:27.782Z,13.28
2019-02-15T03:07:56.054Z,13.72
2019-02-15T03:10:24.301Z,13.35
2019-02-15T03:12:52.585Z,11.40
2019-02-15T03:15:20.843Z,12.93
2019-02-15T03:17:49.149Z,13.72
2019-02-15T03:20:17.428Z,12.65
2019-02-15T03:22:45.714Z,14.33
2019-02-15T03:25:13.959Z,14.10
2019-02-15T03:27:42.241Z,13.28
2019-02-15T03:30:10.527Z,14.25
2019-02-15T03:32:38.782Z,14.68
2019-02-15T03:35:09.066Z,13.93
2019-02-15T03:37:39.212Z,12.10
2019-02-15T03:40:10.261Z,11.43
2019-02-15T03:42:38.531Z,12.93
2019-02-15T03:45:08.324Z,13.48
2019-02-15T03:47:37.238Z,14.03
2019-02-15T03:50:07.946Z,12.85
2019-02-15T03:52:36.205Z,11.00
2019-02-15T03:55:05.901Z,11.40
2019-02-15T03:57:36.217Z,13.35
2019-02-15T04:00:07.135Z,13.43
2019-02-15T04:02:35.436Z,12.70
2019-02-15T04:05:03.871Z,12.53
2019-02-15T04:07:32.179Z,13.40
2019-02-15T04:10:00.518Z,12.35
2019-02-15T04:12:28.855Z,12.30
2019-02-15T04:14:57.123Z,13.50
2019-02-15T04:17:25.421Z,11.88
2019-02-15T04:19:53.694Z,11.48
2019-02-15T04:22:22.000Z,12.58
2019-02-15T04:24:50.301Z,12.78
2019-02-15T04:27:20.213Z,12.07
2019-02-15T04:29:48.589Z,13.43
2019-02-15T04:32:18.919Z,13.72
2019-02-15T04:34:46.942Z,12.45
2019-02-15T04:37:15.221Z,10.68
2019-02-15T04:39:43.548Z,11.57
2019-02-15T04:42:11.827Z,11.60
2019-02-15T04:44:42.807Z,10.48
2019-02-15T04:47:10.089Z,11.35
2019-02-15T04:49:38.381Z,12.50
2019-02-15T04:52:06.631Z,11.73
2019-02-15T04:54:34.946Z,12.28
2019-02-15T04:57:11.049Z,12.58
2019-02-15T04:59:39.623Z,12.58
2019-02-15T05:02:07.880Z,11.35
2019-02-15T05:04:36.158Z,11.73
2019-02-15T05:07:04.419Z,10.95
2019-02-15T05:09:32.700Z,11.68
2019-02-15T05:12:00.968Z,11.78
2019-02-15T05:14:29.240Z,11.28
2019-02-15T05:16:58.624Z,11.28
2019-02-15T05:19:27.660Z,12.78
2019-02-15T05:21:55.911Z,13.00
2019-02-15T05:24:24.181Z,11.57
2019-02-15T05:26:52.527Z,13.15
2019-02-15T05:29:20.882Z,10.85
2019-02-15T05:31:49.157Z,10.40
2019-02-15T05:34:17.420Z,11.85
2019-02-15T05:36:45.708Z,11.93
2019-02-15T05:39:14.117Z,13.58
2019-02-15T05:41:42.430Z,11.43
2019-02-15T05:44:10.690Z,11.97
2019-02-15T05:46:38.975Z,11.38
2019-02-15T05:49:07.234Z,12.40
2019-02-15T05:51:35.515Z,12.28
2019-02-15T05:54:03.768Z,12.47
2019-02-15T05:56:32.047Z,10.88
2019-02-15T05:59:00.299Z,12.13
2019-02-15T06:01:29.268Z,11.35
2019-02-15T06:03:57.528Z,12.15
2019-02-15T06:06:28.483Z,11.80
2019-02-15T06:08:59.739Z,13.08
2019-02-15T06:11:28.023Z,11.83
2019-02-15T06:13:56.280Z,12.47
2019-02-15T06:16:24.560Z,11.12
2019-02-15T06:18:54.909Z,11.80
2019-02-15T06:21:22.866Z,12.47
2019-02-15T06:23:52.881Z,12.30
2019-02-15T06:26:21.143Z,11.33
2019-02-15T06:28:50.534Z,13.25
2019-02-15T06:31:18.815Z,11.95
2019-02-15T06:33:47.096Z,12.88
2019-02-15T06:36:15.373Z,13.48
2019-02-15T06:38:43.647Z,12.03
2019-02-15T06:41:12.522Z,11.10
2019-02-15T06:43:41.074Z,10.85
2019-02-15T06:46:09.328Z,10.10
2019-02-15T06:48:37.619Z,11.38
2019-02-15T06:51:05.919Z,8.73
2019-02-15T06:53:35.904Z,9.25
2019-02-15T06:56:04.151Z,10.70
2019-02-15T06:58:32.417Z,11.55
2019-02-15T07:01:14.657Z,11.48
2019-02-15T07:03:53.325Z,9.80
2019-02-15T07:06:21.595Z,10.58
2019-02-15T07:08:49.843Z,10.93
2019-02-15T07:11:18.120Z,11.20
2019-02-15T07:13:46.381Z,11.22
2019-02-15T07:16:14.678Z,10.60
2019-02-15T07:18:47.667Z,11.10
2019-02-15T07:21:15.887Z,11.33
2019-02-15T07:23:44.161Z,11.85
2019-02-15T07:26:12.519Z,12.03
2019-02-15T07:28:40.783Z,12.28
2019-02-15T07:31:09.076Z,13.22
2019-02-15T07:33:37.545Z,12.63
2019-02-15T07:36:05.821Z,12.70
2019-02-15T07:38:34.067Z,10.35
2019-02-15T07:41:07.041Z,9.63
2019-02-15T07:43:35.301Z,10.78
2019-02-15T07:46:03.583Z,10.20
2019-02-15T07:48:31.916Z,8.98
2019-02-15T07:51:09.310Z,9.80
2019-02-15T07:53:31.796Z,9.28
2019-02-15T07:56:00.096Z,8.05
2019-02-15T07:58:28.365Z,8.68
2019-02-15T08:00:56.652Z,8.45
2019-02-15T08:03:24.923Z,7.78
2019-02-15T08:05:53.205Z,8.75
2019-02-15T08:08:21.473Z,7.62
2019-02-15T08:10:50.390Z,7.90
2019-02-15T08:13:18.625Z,7.75
2019-02-15T08:15:52.110Z,7.55
2019-02-15T08:18:17.189Z,8.18
2019-02-15T08:20:45.466Z,7.70
2019-02-15T08:23:13.745Z,8.15
2019-02-15T08:25:42.000Z,8.20
2019-02-15T08:28:10.297Z,8.00
2019-02-15T08:30:38.605Z,7.87
2019-02-15T08:33:06.882Z,8.15
2019-02-15T08:35:35.109Z,8.25
2019-02-15T08:38:03.411Z,7.60
2019-02-15T08:40:31.655Z,7.75
2019-02-15T08:42:59.950Z,8.18
2019-02-15T08:45:28.216Z,7.08
2019-02-15T08:47:56.498Z,7.70
2019-02-15T08:50:24.952Z,7.45
2019-02-15T08:52:55.075Z,7.80
2019-02-15T08:55:23.262Z,7.47
2019-02-15T08:57:51.568Z,7.15
2019-02-15T09:00:19.855Z,7.78
2019-02-15T09:02:48.109Z,7.05
2019-02-15T09:05:16.395Z,7.15
2019-02-15T09:07:44.663Z,7.75
2019-02-15T09:10:13.795Z,7.33
2019-02-15T09:12:42.042Z,7.85
2019-02-15T09:15:13.442Z,7.87
2019-02-15T09:17:41.746Z,7.70
2019-02-15T09:20:11.678Z,7.90
2019-02-15T09:22:39.968Z,7.75
2019-02-15T09:25:10.107Z,7.72
2019-02-15T09:27:39.992Z,8.58
2019-02-15T09:30:11.378Z,7.70
2019-02-15T09:32:39.670Z,7.97
2019-02-15T09:35:10.185Z,7.60
2019-02-15T09:37:38.461Z,7.72
2019-02-15T09:40:09.084Z,8.10
2019-02-15T09:42:37.364Z,7.97
2019-02-15T09:45:08.922Z,7.08
2019-02-15T09:47:37.188Z,7.80
2019-02-15T09:50:09.749Z,7.60
2019-02-15T09:52:38.272Z,8.05
2019-02-15T09:55:06.546Z,7.17
2019-02-15T09:57:34.830Z,7.22
2019-02-15T10:00:03.156Z,7.45
2019-02-15T10:02:31.449Z,7.35
2019-02-15T10:04:59.698Z,7.45
2019-02-15T10:07:27.972Z,7.65
2019-02-15T10:09:56.238Z,7.40
2019-02-15T10:12:24.509Z,7.75
2019-02-15T10:14:52.936Z,6.80
2019-02-15T10:17:21.193Z,7.40
2019-02-15T10:19:49.440Z,6.97
2019-02-15T10:22:17.747Z,7.78
2019-02-15T10:24:46.000Z,6.92
2019-02-15T10:27:14.288Z,7.28
2019-02-15T10:29:42.562Z,6.85
2019-02-15T10:32:10.821Z,7.15
2019-02-15T10:34:39.085Z,7.70
2019-02-15T10:37:07.391Z,6.83
2019-02-15T10:39:35.654Z,7.33
2019-02-15T10:42:03.951Z,7.60
2019-02-15T10:44:32.253Z,7.22
2019-02-15T10:47:00.504Z,7.00
2019-02-15T10:49:28.779Z,7.22
2019-02-15T10:51:57.020Z,6.58
2019-02-15T10:54:25.299Z,6.25
2019-02-15T10:56:53.645Z,6.80
2019-02-15T10:59:22.024Z,8.18
2019-02-15T11:01:50.285Z,7.20
2019-02-15T11:04:18.645Z,6.35
2019-02-15T11:06:46.913Z,5.70
2019-02-15T11:09:15.202Z,6.72
2019-02-15T11:11:43.869Z,6.70
2019-02-15T11:14:12.125Z,6.28
2019-02-15T11:16:47.017Z,6.20
2019-02-15T11:19:10.388Z,6.22
2019-02-15T11:21:38.650Z,6.70
2019-02-15T11:24:06.933Z,6.40
2019-02-15T11:26:35.192Z,6.05
2019-02-15T11:29:03.653Z,5.22
2019-02-15T11:31:31.957Z,5.45
2019-02-15T11:34:00.230Z,5.70
2019-02-15T11:36:29.845Z,4.65
2019-02-15T11:38:58.247Z,5.00
2019-02-15T11:41:26.489Z,5.25
2019-02-15T11:43:54.778Z,4.90
2019-02-15T11:46:23.040Z,5.12
2019-02-15T11:48:51.319Z,4.47
2019-02-15T11:51:19.597Z,4.67
2019-02-15T11:53:48.128Z,4.40
2019-02-15T11:56:16.383Z,4.87
2019-02-15T11:58:44.689Z,4.62
2019-02-15T12:01:12.939Z,4.47
2019-02-15T12:03:41.210Z,4.45
2019-02-15T12:06:09.467Z,4.17
2019-02-15T12:08:37.935Z,4.60
2019-02-15T12:11:06.200Z,3.62
2019-02-15T12:13:34.469Z,4.40
2019-02-15T12:16:02.741Z,4.10
2019-02-15T12:18:31.017Z,3.77
2019-02-15T12:20:59.314Z,4.50
2019-02-15T12:23:28.534Z,3.98
2019-02-15T12:25:56.928Z,4.47
2019-02-15T12:28:25.180Z,4.35
2019-02-15T12:30:53.481Z,4.85
2019-02-15T12:33:21.776Z,4.40
2019-02-15T12:35:50.063Z,4.50
2019-02-15T12:38:18.309Z,4.20
2019-02-15T12:40:46.575Z,4.10
2019-02-15T12:43:14.847Z,4.12
2019-02-15T12:45:43.122Z,3.85
2019-02-15T12:48:11.403Z,3.40
2019-02-15T12:50:39.712Z,4.15
2019-02-15T12:53:07.963Z,4.12
2019-02-15T12:55:36.271Z,5.17
2019-02-15T12:58:04.537Z,4.40
2019-02-15T13:00:33.321Z,4.60
2019-02-15T13:03:01.632Z,4.83
2019-02-15T13:05:29.915Z,4.67
2019-02-15T13:07:58.249Z,4.42
2019-02-15T13:10:28.197Z,4.72
2019-02-15T13:12:56.476Z,4.80
2019-02-15T13:15:24.896Z,5.15
2019-02-15T13:17:53.177Z,5.12
2019-02-15T13:20:21.503Z,4.60
2019-02-15T13:22:50.137Z,5.20
2019-02-15T13:25:18.425Z,4.62
2019-02-15T13:27:46.717Z,4.30
2019-02-15T13:30:16.417Z,5.03
2019-02-15T13:32:44.773Z,4.37
2019-02-15T13:35:18.828Z,16.97
2019-02-15T13:37:47.132Z,4.97
2019-02-15T13:40:15.399Z,4.40
2019-02-15T13:42:43.670Z,4.60
2019-02-15T13:45:13.023Z,4.30
2019-02-15T13:47:41.317Z,4.28
2019-02-15T13:50:14.708Z,4.75
2019-02-15T13:52:42.991Z,4.10
2019-02-15T13:55:11.435Z,3.72
2019-02-15T13:57:39.849Z,3.70
2019-02-15T14:00:11.630Z,4.45
2019-02-15T14:02:39.905Z,4.25
2019-02-15T14:05:10.450Z,3.92
2019-02-15T14:07:38.745Z,3.98
2019-02-15T14:10:11.721Z,3.80
2019-02-15T14:12:40.069Z,3.70
2019-02-15T14:15:09.765Z,4.10
2019-02-15T14:17:45.305Z,3.70
2019-02-15T14:20:13.156Z,4.20
2019-02-15T14:22:43.074Z,3.72
2019-02-15T14:25:12.074Z,4.20
2019-02-15T14:27:40.349Z,3.77
2019-02-15T14:30:11.861Z,3.98
2019-02-15T14:32:40.129Z,3.50
2019-02-15T14:35:10.616Z,3.75
2019-02-15T14:37:41.897Z,3.85
2019-02-15T14:40:12.846Z,3.60
2019-02-15T14:42:41.140Z,3.80
2019-02-15T14:45:11.613Z,3.00
2019-02-15T14:47:39.877Z,3.55
2019-02-15T14:50:09.400Z,3.40
2019-02-15T14:52:40.644Z,3.50
2019-02-15T14:55:10.057Z,3.47
2019-02-15T14:57:38.308Z,3.22
2019-02-15T15:00:16.080Z,2.85
2019-02-15T15:02:44.385Z,3.10
2019-02-15T15:05:13.324Z,3.10
2019-02-15T15:07:41.680Z,2.92
2019-02-15T15:10:10.979Z,3.30
2019-02-15T15:12:39.229Z,2.80
2019-02-15T15:15:11.640Z,2.85
2019-02-15T15:17:40.248Z,2.60
2019-02-15T15:20:10.576Z,2.65
2019-02-15T15:22:38.829Z,2.50
2019-02-15T15:25:13.267Z,2.27
2019-02-15T15:27:43.127Z,2.17
2019-02-15T15:30:13.990Z,2.52
2019-02-15T15:32:42.313Z,2.45
2019-02-15T15:35:11.729Z,2.30
2019-02-15T15:37:40.004Z,2.15
2019-02-15T15:40:12.885Z,2.10
2019-02-15T15:42:41.167Z,1.95
2019-02-15T15:45:11.160Z,1.80
2019-02-15T15:47:39.469Z,2.12
2019-02-15T15:50:09.880Z,1.77
2019-02-15T15:52:38.254Z,2.00
2019-02-15T15:55:08.627Z,1.85
2019-02-15T15:57:36.985Z,1.95
2019-02-15T16:00:08.018Z,1.70
2019-02-15T16:02:37.513Z,1.95
2019-02-15T16:05:09.075Z,1.65
2019-02-15T16:07:38.283Z,1.57
2019-02-15T16:10:09.377Z,1.90
2019-02-15T16:12:39.541Z,1.90
2019-02-15T16:15:12.868Z,2.10
2019-02-15T16:17:41.141Z,2.17
2019-02-15T16:20:11.031Z,1.77
2019-02-15T16:22:39.314Z,1.75
2019-02-15T16:25:08.623Z,1.70
2019-02-15T16:27:36.929Z,2.02
2019-02-15T16:30:11.430Z,1.65
2019-02-15T16:32:41.181Z,1.87
2019-02-15T16:35:09.701Z,2.25
2019-02-15T16:37:37.959Z,1.90
2019-02-15T16:40:12.003Z,2.17
2019-02-15T16:42:40.315Z,2.20
2019-02-15T16:45:13.062Z,1.92
2019-02-15T16:47:41.500Z,2.30
2019-02-15T16:50:09.896Z,2.20
2019-02-15T16:52:38.172Z,2.10
2019-02-15T16:55:12.801Z,1.98
2019-02-15T16:57:37.957Z,2.10
2019-02-15T17:00:09.314Z,2.00
2019-02-15T17:02:37.593Z,2.10
2019-02-15T17:05:06.702Z,2.40
2019-02-15T17:07:34.994Z,2.17
2019-02-15T17:10:03.712Z,2.70
2019-02-15T17:12:31.965Z,2.35
2019-02-15T17:15:00.289Z,2.10
2019-02-15T17:17:28.549Z,2.30
2019-02-15T17:19:56.815Z,2.30
2019-02-15T17:22:25.066Z,2.60
2019-02-15T17:24:53.463Z,3.92
2019-02-15T17:27:21.711Z,3.92
2019-02-15T17:29:50.082Z,3.25
2019-02-15T17:32:18.339Z,3.08
2019-02-15T17:34:46.646Z,3.55
2019-02-15T17:37:14.911Z,2.52
2019-02-15T17:39:43.183Z,2.40
2019-02-15T17:42:11.436Z,2.33
2019-02-15T17:44:39.711Z,2.58
2019-02-15T17:47:07.970Z,2.65
2019-02-15T17:49:36.235Z,2.42
2019-02-15T17:52:04.473Z,2.08
2019-02-15T17:54:32.755Z,2.42
2019-02-15T17:57:01.013Z,1.92
2019-02-15T17:59:29.684Z,1.80
2019-02-15T18:01:58.007Z,2.25
2019-02-15T18:04:26.372Z,2.47
2019-02-15T18:06:54.628Z,1.90
2019-02-15T18:09:22.938Z,2.80
2019-02-15T18:11:51.202Z,3.00
2019-02-15T18:14:19.521Z,2.55
2019-02-15T18:16:48.123Z,2.65
2019-02-15T18:19:16.431Z,2.60
2019-02-15T18:21:44.695Z,2.47
2019-02-15T18:24:12.988Z,2.55
2019-02-15T18:26:41.250Z,2.52
2019-02-15T18:29:09.521Z,2.22
2019-02-15T18:31:37.768Z,2.37
2019-02-15T18:34:06.035Z,2.83
2019-02-15T18:36:34.288Z,2.55
2019-02-15T18:39:02.831Z,2.70
2019-02-15T18:41:31.079Z,2.50
2019-02-15T18:43:59.420Z,2.45
2019-02-15T18:46:27.714Z,2.62
2019-02-15T18:48:55.966Z,2.70
2019-02-15T18:51:24.254Z,2.72
2019-02-15T18:53:52.527Z,2.22
2019-02-15T18:56:20.795Z,2.80
2019-02-15T18:58:49.045Z,2.65
2019-02-15T19:01:17.382Z,2.50
2019-02-15T19:03:45.666Z,2.50
2019-02-15T19:06:13.958Z,2.45
2019-02-15T19:08:45.331Z,3.05
2019-02-15T19:11:13.612Z,3.35
2019-02-15T19:13:41.902Z,3.60
2019-02-15T19:16:10.243Z,3.30
2019-02-15T19:18:38.650Z,3.37
2019-02-15T19:21:07.376Z,2.80
2019-02-15T19:23:40.880Z,2.60
2019-02-15T19:26:09.198Z,2.72
2019-02-15T19:28:37.466Z,3.08
2019-02-15T19:31:08.703Z,3.17
2019-02-15T19:33:37.039Z,3.50
2019-02-15T19:36:05.536Z,3.98
2019-02-15T19:38:38.987Z,4.40
2019-02-15T19:41:07.246Z,4.78
2019-02-15T19:43:35.533Z,4.83
2019-02-15T19:46:03.803Z,4.35
2019-02-15T19:48:32.091Z,4.30
2019-02-15T19:51:00.354Z,4.28
2019-02-15T19:53:28.640Z,3.17
2019-02-15T19:55:56.906Z,3.70
2019-02-15T19:58:25.144Z,3.42
2019-02-15T20:00:53.429Z,3.25
2019-02-15T20:03:21.696Z,3.52
2019-02-15T20:05:49.995Z,3.60
2019-02-15T20:08:18.241Z,2.67
2019-02-15T20:10:46.524Z,3.52
2019-02-15T20:13:14.803Z,3.47
2019-02-15T20:15:43.055Z,2.67
2019-02-15T20:18:11.320Z,2.80
2019-02-15T20:20:39.591Z,3.00
2019-02-15T20:23:09.581Z,3.10
2019-02-15T20:25:37.895Z,3.40
2019-02-15T20:28:13.760Z,3.35
2019-02-15T20:30:36.255Z,3.27
2019-02-15T20:33:04.498Z,3.37
2019-02-15T20:35:32.829Z,3.67
2019-02-15T20:38:01.169Z,4.55
2019-02-15T20:40:29.460Z,3.72
2019-02-15T20:42:57.719Z,3.20
2019-02-15T20:45:26.017Z,3.98
2019-02-15T20:47:54.315Z,4.65
2019-02-15T20:50:22.599Z,4.15
2019-02-15T20:52:50.894Z,4.45
2019-02-15T20:55:20.117Z,4.28
2019-02-15T20:57:48.390Z,4.45
2019-02-15T21:00:25.606Z,5.45
2019-02-15T21:02:53.945Z,5.17
2019-02-15T21:05:22.294Z,4.83
2019-02-15T21:07:50.573Z,4.53
2019-02-15T21:10:18.844Z,5.62
2019-02-15T21:12:47.844Z,5.03
2019-02-15T21:15:16.257Z,5.47
2019-02-15T21:17:44.553Z,5.20
2019-02-15T21:20:15.915Z,5.70
2019-02-15T21:22:44.196Z,5.35
2019-02-15T21:25:15.737Z,4.95
2019-02-15T21:27:44.040Z,5.03
2019-02-15T21:30:15.589Z,4.30
2019-02-15T21:32:44.063Z,3.90
2019-02-15T21:35:12.331Z,4.00
2019-02-15T21:37:40.639Z,4.42
2019-02-15T21:40:12.153Z,4.15
2019-02-15T21:42:40.431Z,3.80
2019-02-15T21:45:10.520Z,3.77
2019-02-15T21:47:38.855Z,4.50
2019-02-15T21:50:16.623Z,4.10
2019-02-15T21:52:44.224Z,3.70
2019-02-15T21:55:15.229Z,4.75
2019-02-15T21:57:43.503Z,5.03
2019-02-15T22:00:15.046Z,5.45
2019-02-15T22:02:43.322Z,5.58
2019-02-15T22:05:11.578Z,4.80
2019-02-15T22:07:39.855Z,6.00
2019-02-15T22:10:09.678Z,5.12
2019-02-15T22:12:37.978Z,4.80
2019-02-15T22:15:09.459Z,5.85
2019-02-15T22:17:37.735Z,5.85
2019-02-15T22:20:09.268Z,6.08
2019-02-15T22:22:37.553Z,5.70
2019-02-15T22:25:07.083Z,5.20
2019-02-15T22:27:35.402Z,6.03
2019-02-15T22:30:27.814Z,5.80
2019-02-15T22:32:56.073Z,4.45
2019-02-15T22:35:24.350Z,5.90
2019-02-15T22:37:52.734Z,6.35
2019-02-15T22:40:29.345Z,5.70
2019-02-15T22:43:09.168Z,5.33
2019-02-15T22:45:37.448Z,5.55
2019-02-15T22:48:07.405Z,5.70
2019-02-15T22:50:36.501Z,5.30
2019-02-15T22:53:04.921Z,4.80
2019-02-15T22:55:33.252Z,5.97
2019-02-15T22:58:01.527Z,5.30
2019-02-15T23:03:19.218Z,6.72
2019-02-15T23:05:47.476Z,7.42
2019-02-15T23:08:15.749Z,6.80
2019-02-15T23:10:44.082Z,6.80
2019-02-15T23:13:12.368Z,6.05
2019-02-15T23:15:40.626Z,5.33
2019-02-15T23:18:08.870Z,6.85
2019-02-15T23:20:44.929Z,6.85
2019-02-15T23:23:07.118Z,6.15
2019-02-15T23:25:35.391Z,6.67
2019-02-15T23:28:03.662Z,6.47
2019-02-15T23:30:31.934Z,6.47
2019-02-15T23:33:00.207Z,5.83
2019-02-15T23:35:28.464Z,6.37
2019-02-15T23:37:56.773Z,6.30
2019-02-15T23:40:25.018Z,6.37
2019-02-15T23:42:53.287Z,7.12
2019-02-15T23:45:21.552Z,7.08
2019-02-15T23:47:52.818Z,5.72
2019-02-15T23:50:24.128Z,6.37
2019-02-15T23:52:52.415Z,6.80
2019-02-15T23:55:20.667Z,6.50
2019-02-15T23:57:48.973Z,5.75
